sensor_id;sensor_type;location;lat;lon;timestamp;P1;durP1;ratioP1;P2;durP2;ratioP2
70132;SDS011;57495;49.922;7.966;2023-07-09T00:01:53;6.90;;;3.40;;
70132;SDS011;57495;49.922;7.966;2023-07-09T00:03:55;10.65;;;3.38;;
70132;SDS011;57495;49.922;7.966;2023-07-09T00:05:55;10.67;;;4.07;;
70132;SDS011;57495;49.922;7.966;2023-07-09T00:07:56;7.35;;;3.50;;
70132;SDS011;57495;49.922;7.966;2023-07-09T00:10:00;9.68;;;3.58;;
70132;SDS011;57495;49.922;7.966;2023-07-09T00:12:02;8.52;;;3.72;;
70132;SDS011;57495;49.922;7.966;2023-07-09T00:14:04;8.00;;;3.67;;
70132;SDS011;57495;49.922;7.966;2023-07-09T00:16:10;9.67;;;4.20;;
70132;SDS011;57495;49.922;7.966;2023-07-09T00:18:18;8.88;;;4.53;;
70132;SDS011;57495;49.922;7.966;2023-07-09T00:20:19;9.25;;;4.10;;
70132;SDS011;57495;49.922;7.966;2023-07-09T00:22:21;9.27;;;3.75;;
70132;SDS011;57495;49.922;7.966;2023-07-09T00:24:22;9.13;;;4.38;;
70132;SDS011;57495;49.922;7.966;2023-07-09T00:26:23;8.60;;;3.77;;
70132;SDS011;57495;49.922;7.966;2023-07-09T00:28:26;9.52;;;4.00;;
70132;SDS011;57495;49.922;7.966;2023-07-09T00:30:27;8.93;;;4.40;;
70132;SDS011;57495;49.922;7.966;2023-07-09T00:32:28;11.33;;;4.30;;
70132;SDS011;57495;49.922;7.966;2023-07-09T00:34:30;11.00;;;4.43;;
70132;SDS011;57495;49.922;7.966;2023-07-09T00:36:32;10.27;;;4.25;;
70132;SDS011;57495;49.922;7.966;2023-07-09T00:38:33;8.82;;;3.90;;
70132;SDS011;57495;49.922;7.966;2023-07-09T00:40:44;11.50;;;4.77;;
70132;SDS011;57495;49.922;7.966;2023-07-09T00:42:49;8.98;;;4.15;;
70132;SDS011;57495;49.922;7.966;2023-07-09T00:44:53;12.02;;;4.35;;
70132;SDS011;57495;49.922;7.966;2023-07-09T00:47:18;8.20;;;3.83;;
70132;SDS011;57495;49.922;7.966;2023-07-09T00:49:26;9.93;;;3.47;;
70132;SDS011;57495;49.922;7.966;2023-07-09T00:51:32;9.33;;;4.27;;
70132;SDS011;57495;49.922;7.966;2023-07-09T00:53:37;10.32;;;3.75;;
70132;SDS011;57495;49.922;7.966;2023-07-09T00:55:46;8.90;;;3.78;;
70132;SDS011;57495;49.922;7.966;2023-07-09T00:57:53;9.73;;;3.83;;
70132;SDS011;57495;49.922;7.966;2023-07-09T00:59:59;10.25;;;4.00;;
70132;SDS011;57495;49.922;7.966;2023-07-09T01:02:07;6.80;;;3.40;;
70132;SDS011;57495;49.922;7.966;2023-07-09T01:04:09;8.85;;;4.30;;
70132;SDS011;57495;49.922;7.966;2023-07-09T01:06:12;9.10;;;3.55;;
70132;SDS011;57495;49.922;7.966;2023-07-09T01:08:15;7.35;;;3.58;;
70132;SDS011;57495;49.922;7.966;2023-07-09T01:10:16;9.55;;;3.65;;
70132;SDS011;57495;49.922;7.966;2023-07-09T01:12:20;9.93;;;4.23;;
70132;SDS011;57495;49.922;7.966;2023-07-09T01:14:22;8.10;;;4.03;;
70132;SDS011;57495;49.922;7.966;2023-07-09T01:16:26;9.57;;;4.57;;
70132;SDS011;57495;49.922;7.966;2023-07-09T01:18:32;7.80;;;4.18;;
70132;SDS011;57495;49.922;7.966;2023-07-09T01:20:34;10.60;;;4.35;;
70132;SDS011;57495;49.922;7.966;2023-07-09T01:22:37;6.93;;;3.63;;
70132;SDS011;57495;49.922;7.966;2023-07-09T01:24:48;9.25;;;4.00;;
70132;SDS011;57495;49.922;7.966;2023-07-09T01:26:53;9.43;;;3.78;;
70132;SDS011;57495;49.922;7.966;2023-07-09T01:28:54;8.80;;;4.35;;
70132;SDS011;57495;49.922;7.966;2023-07-09T01:30:57;8.43;;;4.57;;
70132;SDS011;57495;49.922;7.966;2023-07-09T01:32:59;8.13;;;3.90;;
70132;SDS011;57495;49.922;7.966;2023-07-09T01:35:03;9.02;;;4.30;;
70132;SDS011;57495;49.922;7.966;2023-07-09T01:37:06;10.45;;;4.57;;
70132;SDS011;57495;49.922;7.966;2023-07-09T01:39:09;12.00;;;4.63;;
70132;SDS011;57495;49.922;7.966;2023-07-09T01:41:11;13.02;;;4.80;;
70132;SDS011;57495;49.922;7.966;2023-07-09T01:43:14;12.67;;;4.43;;
70132;SDS011;57495;49.922;7.966;2023-07-09T01:45:15;8.68;;;4.15;;
70132;SDS011;57495;49.922;7.966;2023-07-09T01:47:16;13.35;;;4.47;;
70132;SDS011;57495;49.922;7.966;2023-07-09T01:49:18;7.78;;;4.38;;
70132;SDS011;57495;49.922;7.966;2023-07-09T01:51:21;12.57;;;4.47;;
70132;SDS011;57495;49.922;7.966;2023-07-09T01:53:23;9.23;;;4.50;;
70132;SDS011;57495;49.922;7.966;2023-07-09T01:55:28;11.70;;;4.57;;
70132;SDS011;57495;49.922;7.966;2023-07-09T01:57:30;10.48;;;4.57;;
70132;SDS011;57495;49.922;7.966;2023-07-09T01:59:33;7.53;;;4.28;;
70132;SDS011;57495;49.922;7.966;2023-07-09T02:01:41;8.35;;;4.05;;
70132;SDS011;57495;49.922;7.966;2023-07-09T02:03:42;10.37;;;4.37;;
70132;SDS011;57495;49.922;7.966;2023-07-09T02:05:43;8.80;;;4.20;;
70132;SDS011;57495;49.922;7.966;2023-07-09T02:07:44;9.73;;;4.90;;
70132;SDS011;57495;49.922;7.966;2023-07-09T02:09:46;10.75;;;4.85;;
70132;SDS011;57495;49.922;7.966;2023-07-09T02:11:48;15.20;;;4.82;;
70132;SDS011;57495;49.922;7.966;2023-07-09T02:13:49;9.05;;;4.90;;
70132;SDS011;57495;49.922;7.966;2023-07-09T02:15:51;12.17;;;4.73;;
70132;SDS011;57495;49.922;7.966;2023-07-09T02:17:52;10.15;;;4.75;;
70132;SDS011;57495;49.922;7.966;2023-07-09T02:19:54;9.63;;;4.70;;
70132;SDS011;57495;49.922;7.966;2023-07-09T02:21:55;8.85;;;4.70;;
70132;SDS011;57495;49.922;7.966;2023-07-09T02:23:57;10.90;;;5.35;;
70132;SDS011;57495;49.922;7.966;2023-07-09T02:25:58;9.97;;;4.27;;
70132;SDS011;57495;49.922;7.966;2023-07-09T02:28:01;9.85;;;4.80;;
70132;SDS011;57495;49.922;7.966;2023-07-09T02:30:03;10.32;;;4.72;;
70132;SDS011;57495;49.922;7.966;2023-07-09T02:32:04;8.82;;;5.10;;
70132;SDS011;57495;49.922;7.966;2023-07-09T02:34:06;10.07;;;4.90;;
70132;SDS011;57495;49.922;7.966;2023-07-09T02:36:07;11.13;;;5.00;;
70132;SDS011;57495;49.922;7.966;2023-07-09T02:38:09;9.38;;;5.00;;
70132;SDS011;57495;49.922;7.966;2023-07-09T02:40:11;11.05;;;5.18;;
70132;SDS011;57495;49.922;7.966;2023-07-09T02:42:14;11.13;;;4.88;;
70132;SDS011;57495;49.922;7.966;2023-07-09T02:44:18;11.88;;;5.00;;
70132;SDS011;57495;49.922;7.966;2023-07-09T02:46:19;14.27;;;5.23;;
70132;SDS011;57495;49.922;7.966;2023-07-09T02:48:21;9.43;;;5.13;;
70132;SDS011;57495;49.922;7.966;2023-07-09T02:50:22;9.77;;;4.60;;
70132;SDS011;57495;49.922;7.966;2023-07-09T02:52:24;7.15;;;4.30;;
70132;SDS011;57495;49.922;7.966;2023-07-09T02:54:26;11.27;;;4.93;;
70132;SDS011;57495;49.922;7.966;2023-07-09T02:56:28;9.20;;;4.40;;
70132;SDS011;57495;49.922;7.966;2023-07-09T02:58:30;9.30;;;4.30;;
70132;SDS011;57495;49.922;7.966;2023-07-09T03:00:32;9.05;;;4.63;;
70132;SDS011;57495;49.922;7.966;2023-07-09T03:02:34;10.73;;;4.07;;
70132;SDS011;57495;49.922;7.966;2023-07-09T03:04:35;9.43;;;4.40;;
70132;SDS011;57495;49.922;7.966;2023-07-09T03:06:37;8.17;;;3.77;;
70132;SDS011;57495;49.922;7.966;2023-07-09T03:08:38;7.43;;;3.80;;
70132;SDS011;57495;49.922;7.966;2023-07-09T03:10:38;9.60;;;4.03;;
70132;SDS011;57495;49.922;7.966;2023-07-09T03:12:40;7.35;;;3.47;;
70132;SDS011;57495;49.922;7.966;2023-07-09T03:14:41;7.72;;;4.78;;
70132;SDS011;57495;49.922;7.966;2023-07-09T03:16:44;9.18;;;4.47;;
70132;SDS011;57495;49.922;7.966;2023-07-09T03:18:45;9.57;;;5.00;;
70132;SDS011;57495;49.922;7.966;2023-07-09T03:20:47;12.33;;;4.43;;
70132;SDS011;57495;49.922;7.966;2023-07-09T03:22:48;10.77;;;5.15;;
70132;SDS011;57495;49.922;7.966;2023-07-09T03:24:49;13.57;;;4.32;;
70132;SDS011;57495;49.922;7.966;2023-07-09T03:26:51;8.48;;;4.22;;
70132;SDS011;57495;49.922;7.966;2023-07-09T03:28:52;10.32;;;5.00;;
70132;SDS011;57495;49.922;7.966;2023-07-09T03:30:54;11.40;;;4.60;;
70132;SDS011;57495;49.922;7.966;2023-07-09T03:32:57;8.45;;;4.45;;
70132;SDS011;57495;49.922;7.966;2023-07-09T03:35:00;7.43;;;4.43;;
70132;SDS011;57495;49.922;7.966;2023-07-09T03:37:01;9.35;;;4.28;;
70132;SDS011;57495;49.922;7.966;2023-07-09T03:39:03;10.20;;;4.78;;
70132;SDS011;57495;49.922;7.966;2023-07-09T03:41:04;10.10;;;4.63;;
70132;SDS011;57495;49.922;7.966;2023-07-09T03:43:07;10.70;;;3.97;;
70132;SDS011;57495;49.922;7.966;2023-07-09T03:45:10;9.48;;;4.55;;
70132;SDS011;57495;49.922;7.966;2023-07-09T03:47:11;9.05;;;4.25;;
70132;SDS011;57495;49.922;7.966;2023-07-09T03:49:14;9.63;;;4.35;;
70132;SDS011;57495;49.922;7.966;2023-07-09T03:51:15;7.30;;;3.40;;
70132;SDS011;57495;49.922;7.966;2023-07-09T03:53:16;7.90;;;3.97;;
70132;SDS011;57495;49.922;7.966;2023-07-09T03:55:18;8.80;;;4.20;;
70132;SDS011;57495;49.922;7.966;2023-07-09T03:57:19;7.32;;;4.22;;
70132;SDS011;57495;49.922;7.966;2023-07-09T03:59:21;8.98;;;4.05;;
70132;SDS011;57495;49.922;7.966;2023-07-09T04:01:22;11.03;;;4.40;;
70132;SDS011;57495;49.922;7.966;2023-07-09T04:03:23;9.13;;;4.57;;
70132;SDS011;57495;49.922;7.966;2023-07-09T04:05:26;10.10;;;3.92;;
70132;SDS011;57495;49.922;7.966;2023-07-09T04:07:28;12.15;;;4.38;;
70132;SDS011;57495;49.922;7.966;2023-07-09T04:09:30;9.02;;;4.38;;
70132;SDS011;57495;49.922;7.966;2023-07-09T04:11:31;7.10;;;4.00;;
70132;SDS011;57495;49.922;7.966;2023-07-09T04:13:33;8.70;;;3.85;;
70132;SDS011;57495;49.922;7.966;2023-07-09T04:15:34;8.55;;;4.65;;
70132;SDS011;57495;49.922;7.966;2023-07-09T04:17:36;7.88;;;4.22;;
70132;SDS011;57495;49.922;7.966;2023-07-09T04:19:37;6.70;;;4.18;;
70132;SDS011;57495;49.922;7.966;2023-07-09T04:21:40;8.67;;;3.80;;
70132;SDS011;57495;49.922;7.966;2023-07-09T04:23:42;7.93;;;3.85;;
70132;SDS011;57495;49.922;7.966;2023-07-09T04:25:43;7.03;;;3.60;;
70132;SDS011;57495;49.922;7.966;2023-07-09T04:27:44;8.52;;;3.83;;
70132;SDS011;57495;49.922;7.966;2023-07-09T04:29:46;8.23;;;4.20;;
70132;SDS011;57495;49.922;7.966;2023-07-09T04:31:48;10.70;;;5.07;;
70132;SDS011;57495;49.922;7.966;2023-07-09T04:33:50;8.80;;;4.75;;
70132;SDS011;57495;49.922;7.966;2023-07-09T04:35:52;11.27;;;4.60;;
70132;SDS011;57495;49.922;7.966;2023-07-09T04:37:55;8.93;;;4.45;;
70132;SDS011;57495;49.922;7.966;2023-07-09T04:39:56;10.00;;;4.13;;
70132;SDS011;57495;49.922;7.966;2023-07-09T04:41:57;9.67;;;4.53;;
70132;SDS011;57495;49.922;7.966;2023-07-09T04:43:59;13.00;;;5.57;;
70132;SDS011;57495;49.922;7.966;2023-07-09T04:46:00;11.02;;;5.30;;
70132;SDS011;57495;49.922;7.966;2023-07-09T04:48:01;13.68;;;6.03;;
70132;SDS011;57495;49.922;7.966;2023-07-09T04:50:03;12.32;;;5.65;;
70132;SDS011;57495;49.922;7.966;2023-07-09T04:52:06;13.00;;;5.30;;
70132;SDS011;57495;49.922;7.966;2023-07-09T04:54:12;13.98;;;5.57;;
70132;SDS011;57495;49.922;7.966;2023-07-09T04:56:15;20.30;;;5.68;;
70132;SDS011;57495;49.922;7.966;2023-07-09T04:58:16;10.85;;;5.50;;
70132;SDS011;57495;49.922;7.966;2023-07-09T05:00:18;11.57;;;5.30;;
70132;SDS011;57495;49.922;7.966;2023-07-09T05:02:20;12.90;;;5.73;;
70132;SDS011;57495;49.922;7.966;2023-07-09T05:04:21;10.55;;;5.25;;
70132;SDS011;57495;49.922;7.966;2023-07-09T05:06:22;13.48;;;5.85;;
70132;SDS011;57495;49.922;7.966;2023-07-09T05:08:24;12.00;;;5.50;;
70132;SDS011;57495;49.922;7.966;2023-07-09T05:10:27;10.07;;;5.43;;
70132;SDS011;57495;49.922;7.966;2023-07-09T05:12:28;11.80;;;5.10;;
70132;SDS011;57495;49.922;7.966;2023-07-09T05:14:29;12.43;;;5.20;;
70132;SDS011;57495;49.922;7.966;2023-07-09T05:16:31;9.85;;;5.57;;
70132;SDS011;57495;49.922;7.966;2023-07-09T05:18:32;11.57;;;5.30;;
70132;SDS011;57495;49.922;7.966;2023-07-09T05:20:34;12.68;;;5.25;;
70132;SDS011;57495;49.922;7.966;2023-07-09T05:22:35;9.53;;;5.07;;
70132;SDS011;57495;49.922;7.966;2023-07-09T05:24:37;11.43;;;4.95;;
70132;SDS011;57495;49.922;7.966;2023-07-09T05:26:39;15.38;;;5.93;;
70132;SDS011;57495;49.922;7.966;2023-07-09T05:28:41;9.68;;;4.88;;
70132;SDS011;57495;49.922;7.966;2023-07-09T05:30:42;12.65;;;5.47;;
70132;SDS011;57495;49.922;7.966;2023-07-09T05:32:43;9.73;;;4.27;;
70132;SDS011;57495;49.922;7.966;2023-07-09T05:34:45;10.40;;;4.57;;
70132;SDS011;57495;49.922;7.966;2023-07-09T05:36:46;10.80;;;4.18;;
70132;SDS011;57495;49.922;7.966;2023-07-09T05:38:48;11.85;;;4.43;;
70132;SDS011;57495;49.922;7.966;2023-07-09T05:40:58;15.10;;;5.45;;
70132;SDS011;57495;49.922;7.966;2023-07-09T05:43:01;13.83;;;4.80;;
70132;SDS011;57495;49.922;7.966;2023-07-09T05:45:03;11.05;;;4.93;;
70132;SDS011;57495;49.922;7.966;2023-07-09T05:47:05;9.73;;;4.25;;
70132;SDS011;57495;49.922;7.966;2023-07-09T05:49:07;10.50;;;4.32;;
70132;SDS011;57495;49.922;7.966;2023-07-09T05:51:08;10.32;;;4.78;;
70132;SDS011;57495;49.922;7.966;2023-07-09T05:53:09;9.70;;;4.70;;
70132;SDS011;57495;49.922;7.966;2023-07-09T05:55:11;13.82;;;4.75;;
70132;SDS011;57495;49.922;7.966;2023-07-09T05:57:12;11.27;;;4.45;;
70132;SDS011;57495;49.922;7.966;2023-07-09T05:59:15;10.52;;;5.13;;
70132;SDS011;57495;49.922;7.966;2023-07-09T06:01:16;10.00;;;4.93;;
70132;SDS011;57495;49.922;7.966;2023-07-09T06:03:18;11.20;;;4.93;;
70132;SDS011;57495;49.922;7.966;2023-07-09T06:05:19;12.35;;;5.10;;
70132;SDS011;57495;49.922;7.966;2023-07-09T06:07:21;13.43;;;4.78;;
70132;SDS011;57495;49.922;7.966;2023-07-09T06:09:23;8.98;;;4.47;;
70132;SDS011;57495;49.922;7.966;2023-07-09T06:11:24;10.52;;;4.80;;
70132;SDS011;57495;49.922;7.966;2023-07-09T06:13:26;10.00;;;4.67;;
70132;SDS011;57495;49.922;7.966;2023-07-09T06:15:31;10.63;;;4.10;;
70132;SDS011;57495;49.922;7.966;2023-07-09T06:17:32;8.75;;;4.53;;
70132;SDS011;57495;49.922;7.966;2023-07-09T06:19:34;8.73;;;3.95;;
70132;SDS011;57495;49.922;7.966;2023-07-09T06:21:35;9.52;;;4.00;;
70132;SDS011;57495;49.922;7.966;2023-07-09T06:23:37;11.30;;;4.67;;
70132;SDS011;57495;49.922;7.966;2023-07-09T06:25:38;10.15;;;4.25;;
70132;SDS011;57495;49.922;7.966;2023-07-09T06:27:39;12.40;;;4.28;;
70132;SDS011;57495;49.922;7.966;2023-07-09T06:29:40;12.02;;;4.53;;
70132;SDS011;57495;49.922;7.966;2023-07-09T06:31:43;11.13;;;4.13;;
70132;SDS011;57495;49.922;7.966;2023-07-09T06:33:45;10.77;;;4.05;;
70132;SDS011;57495;49.922;7.966;2023-07-09T06:35:46;11.30;;;4.80;;
70132;SDS011;57495;49.922;7.966;2023-07-09T06:37:49;10.35;;;5.00;;
70132;SDS011;57495;49.922;7.966;2023-07-09T06:39:50;7.72;;;4.40;;
70132;SDS011;57495;49.922;7.966;2023-07-09T06:41:51;13.90;;;4.73;;
70132;SDS011;57495;49.922;7.966;2023-07-09T06:43:53;8.50;;;4.60;;
70132;SDS011;57495;49.922;7.966;2023-07-09T06:45:55;11.45;;;4.90;;
70132;SDS011;57495;49.922;7.966;2023-07-09T06:47:59;16.30;;;5.05;;
70132;SDS011;57495;49.922;7.966;2023-07-09T06:49:59;9.98;;;4.63;;
70132;SDS011;57495;49.922;7.966;2023-07-09T06:52:00;8.37;;;4.07;;
70132;SDS011;57495;49.922;7.966;2023-07-09T06:54:02;10.18;;;4.60;;
70132;SDS011;57495;49.922;7.966;2023-07-09T06:56:05;8.13;;;4.45;;
70132;SDS011;57495;49.922;7.966;2023-07-09T06:58:06;10.93;;;4.72;;
70132;SDS011;57495;49.922;7.966;2023-07-09T07:00:08;11.02;;;4.43;;
70132;SDS011;57495;49.922;7.966;2023-07-09T07:02:10;12.40;;;5.17;;
70132;SDS011;57495;49.922;7.966;2023-07-09T07:04:13;9.07;;;4.25;;
70132;SDS011;57495;49.922;7.966;2023-07-09T07:06:15;12.02;;;4.72;;
70132;SDS011;57495;49.922;7.966;2023-07-09T07:08:18;9.38;;;4.32;;
70132;SDS011;57495;49.922;7.966;2023-07-09T07:10:20;7.70;;;4.10;;
70132;SDS011;57495;49.922;7.966;2023-07-09T07:12:23;10.33;;;4.73;;
70132;SDS011;57495;49.922;7.966;2023-07-09T07:14:26;12.95;;;5.07;;
70132;SDS011;57495;49.922;7.966;2023-07-09T07:16:27;7.15;;;4.43;;
70132;SDS011;57495;49.922;7.966;2023-07-09T07:18:29;10.18;;;4.57;;
70132;SDS011;57495;49.922;7.966;2023-07-09T07:20:30;10.20;;;4.80;;
70132;SDS011;57495;49.922;7.966;2023-07-09T07:22:32;10.25;;;4.68;;
70132;SDS011;57495;49.922;7.966;2023-07-09T07:24:33;11.18;;;4.53;;
70132;SDS011;57495;49.922;7.966;2023-07-09T07:26:35;7.45;;;4.65;;
70132;SDS011;57495;49.922;7.966;2023-07-09T07:28:36;9.27;;;4.50;;
70132;SDS011;57495;49.922;7.966;2023-07-09T07:30:37;9.75;;;4.78;;
70132;SDS011;57495;49.922;7.966;2023-07-09T07:32:43;9.07;;;4.53;;
70132;SDS011;57495;49.922;7.966;2023-07-09T07:34:46;11.30;;;4.00;;
70132;SDS011;57495;49.922;7.966;2023-07-09T07:36:49;7.85;;;4.40;;
70132;SDS011;57495;49.922;7.966;2023-07-09T07:38:51;8.70;;;4.03;;
70132;SDS011;57495;49.922;7.966;2023-07-09T07:40:53;9.95;;;4.63;;
70132;SDS011;57495;49.922;7.966;2023-07-09T07:42:54;9.20;;;5.05;;
70132;SDS011;57495;49.922;7.966;2023-07-09T07:44:56;9.52;;;5.25;;
70132;SDS011;57495;49.922;7.966;2023-07-09T07:46:57;10.35;;;5.47;;
70132;SDS011;57495;49.922;7.966;2023-07-09T07:48:59;11.33;;;5.53;;
70132;SDS011;57495;49.922;7.966;2023-07-09T07:51:00;9.55;;;5.47;;
70132;SDS011;57495;49.922;7.966;2023-07-09T07:53:04;10.80;;;5.15;;
70132;SDS011;57495;49.922;7.966;2023-07-09T07:55:08;11.63;;;6.03;;
70132;SDS011;57495;49.922;7.966;2023-07-09T07:57:10;12.35;;;4.65;;
70132;SDS011;57495;49.922;7.966;2023-07-09T07:59:11;11.30;;;4.37;;
70132;SDS011;57495;49.922;7.966;2023-07-09T08:01:12;7.47;;;4.18;;
70132;SDS011;57495;49.922;7.966;2023-07-09T08:03:13;7.40;;;4.23;;
70132;SDS011;57495;49.922;7.966;2023-07-09T08:05:15;9.20;;;4.30;;
70132;SDS011;57495;49.922;7.966;2023-07-09T08:07:17;9.77;;;4.55;;
70132;SDS011;57495;49.922;7.966;2023-07-09T08:09:21;8.30;;;4.75;;
70132;SDS011;57495;49.922;7.966;2023-07-09T08:11:22;8.48;;;4.57;;
70132;SDS011;57495;49.922;7.966;2023-07-09T08:13:24;7.97;;;4.10;;
70132;SDS011;57495;49.922;7.966;2023-07-09T08:15:25;11.70;;;4.50;;
70132;SDS011;57495;49.922;7.966;2023-07-09T08:17:27;9.38;;;4.20;;
70132;SDS011;57495;49.922;7.966;2023-07-09T08:19:28;11.10;;;5.25;;
70132;SDS011;57495;49.922;7.966;2023-07-09T08:21:29;8.18;;;5.60;;
70132;SDS011;57495;49.922;7.966;2023-07-09T08:23:31;9.30;;;6.53;;
70132;SDS011;57495;49.922;7.966;2023-07-09T08:25:34;15.65;;;5.43;;
70132;SDS011;57495;49.922;7.966;2023-07-09T08:27:35;10.07;;;4.63;;
70132;SDS011;57495;49.922;7.966;2023-07-09T08:29:37;9.77;;;4.93;;
70132;SDS011;57495;49.922;7.966;2023-07-09T08:31:39;9.13;;;4.53;;
70132;SDS011;57495;49.922;7.966;2023-07-09T08:33:41;10.47;;;4.47;;
70132;SDS011;57495;49.922;7.966;2023-07-09T08:35:43;9.25;;;4.35;;
70132;SDS011;57495;49.922;7.966;2023-07-09T08:37:44;11.18;;;5.68;;
70132;SDS011;57495;49.922;7.966;2023-07-09T08:39:46;13.20;;;5.05;;
70132;SDS011;57495;49.922;7.966;2023-07-09T08:41:49;10.93;;;4.63;;
70132;SDS011;57495;49.922;7.966;2023-07-09T08:43:57;12.27;;;5.60;;
70132;SDS011;57495;49.922;7.966;2023-07-09T08:46:14;12.10;;;5.97;;
70132;SDS011;57495;49.922;7.966;2023-07-09T08:48:22;9.35;;;6.10;;
70132;SDS011;57495;49.922;7.966;2023-07-09T08:50:32;8.00;;;4.30;;
70132;SDS011;57495;49.922;7.966;2023-07-09T08:52:38;8.27;;;4.55;;
70132;SDS011;57495;49.922;7.966;2023-07-09T08:54:42;8.03;;;4.20;;
70132;SDS011;57495;49.922;7.966;2023-07-09T08:56:48;10.85;;;4.65;;
70132;SDS011;57495;49.922;7.966;2023-07-09T08:58:50;7.88;;;3.92;;
70132;SDS011;57495;49.922;7.966;2023-07-09T09:00:55;8.73;;;4.10;;
70132;SDS011;57495;49.922;7.966;2023-07-09T09:02:58;8.82;;;4.40;;
70132;SDS011;57495;49.922;7.966;2023-07-09T09:05:02;11.97;;;5.00;;
70132;SDS011;57495;49.922;7.966;2023-07-09T09:07:06;7.78;;;4.43;;
70132;SDS011;57495;49.922;7.966;2023-07-09T09:09:28;8.43;;;4.35;;
70132;SDS011;57495;49.922;7.966;2023-07-09T09:11:37;9.32;;;4.63;;
70132;SDS011;57495;49.922;7.966;2023-07-09T09:13:45;9.55;;;4.80;;
70132;SDS011;57495;49.922;7.966;2023-07-09T09:15:47;8.53;;;4.70;;
70132;SDS011;57495;49.922;7.966;2023-07-09T09:17:50;7.77;;;4.50;;
70132;SDS011;57495;49.922;7.966;2023-07-09T09:19:55;7.03;;;3.85;;
70132;SDS011;57495;49.922;7.966;2023-07-09T09:21:58;10.45;;;4.47;;
70132;SDS011;57495;49.922;7.966;2023-07-09T09:24:10;10.30;;;4.63;;
70132;SDS011;57495;49.922;7.966;2023-07-09T09:26:16;9.52;;;4.30;;
70132;SDS011;57495;49.922;7.966;2023-07-09T09:28:19;6.97;;;3.80;;
70132;SDS011;57495;49.922;7.966;2023-07-09T09:30:24;9.30;;;5.40;;
70132;SDS011;57495;49.922;7.966;2023-07-09T09:32:27;8.00;;;4.43;;
70132;SDS011;57495;49.922;7.966;2023-07-09T09:34:29;9.70;;;4.55;;
70132;SDS011;57495;49.922;7.966;2023-07-09T09:36:31;9.82;;;4.65;;
70132;SDS011;57495;49.922;7.966;2023-07-09T09:38:37;11.03;;;4.57;;
70132;SDS011;57495;49.922;7.966;2023-07-09T09:40:38;11.80;;;4.37;;
70132;SDS011;57495;49.922;7.966;2023-07-09T09:42:39;8.50;;;4.45;;
70132;SDS011;57495;49.922;7.966;2023-07-09T09:44:43;10.53;;;4.10;;
70132;SDS011;57495;49.922;7.966;2023-07-09T09:46:47;10.18;;;3.72;;
70132;SDS011;57495;49.922;7.966;2023-07-09T09:48:49;10.60;;;3.90;;
70132;SDS011;57495;49.922;7.966;2023-07-09T09:50:54;9.57;;;3.80;;
70132;SDS011;57495;49.922;7.966;2023-07-09T09:53:00;9.43;;;4.15;;
70132;SDS011;57495;49.922;7.966;2023-07-09T09:55:03;7.87;;;5.43;;
70132;SDS011;57495;49.922;7.966;2023-07-09T09:57:15;7.83;;;4.80;;
70132;SDS011;57495;49.922;7.966;2023-07-09T09:59:19;8.13;;;4.97;;
70132;SDS011;57495;49.922;7.966;2023-07-09T10:01:25;8.43;;;4.68;;
70132;SDS011;57495;49.922;7.966;2023-07-09T10:03:33;6.68;;;4.35;;
70132;SDS011;57495;49.922;7.966;2023-07-09T10:05:37;8.82;;;4.63;;
70132;SDS011;57495;49.922;7.966;2023-07-09T10:07:45;9.80;;;4.20;;
70132;SDS011;57495;49.922;7.966;2023-07-09T10:09:56;8.50;;;4.37;;
70132;SDS011;57495;49.922;7.966;2023-07-09T10:12:00;8.02;;;4.10;;
70132;SDS011;57495;49.922;7.966;2023-07-09T10:14:15;8.82;;;3.75;;
70132;SDS011;57495;49.922;7.966;2023-07-09T10:16:27;7.65;;;4.10;;
70132;SDS011;57495;49.922;7.966;2023-07-09T10:18:43;7.15;;;4.40;;
70132;SDS011;57495;49.922;7.966;2023-07-09T10:20:56;8.85;;;4.18;;
70132;SDS011;57495;49.922;7.966;2023-07-09T10:23:11;8.00;;;3.60;;
70132;SDS011;57495;49.922;7.966;2023-07-09T10:25:22;7.53;;;3.87;;
70132;SDS011;57495;49.922;7.966;2023-07-09T10:27:36;7.28;;;3.47;;
70132;SDS011;57495;49.922;7.966;2023-07-09T10:29:55;8.68;;;3.42;;
70132;SDS011;57495;49.922;7.966;2023-07-09T10:32:08;6.85;;;3.50;;
70132;SDS011;57495;49.922;7.966;2023-07-09T10:34:20;6.03;;;3.78;;
70132;SDS011;57495;49.922;7.966;2023-07-09T10:36:33;7.05;;;3.53;;
70132;SDS011;57495;49.922;7.966;2023-07-09T10:38:47;6.18;;;3.45;;
70132;SDS011;57495;49.922;7.966;2023-07-09T10:40:56;7.68;;;3.88;;
70132;SDS011;57495;49.922;7.966;2023-07-09T10:42:59;6.93;;;4.00;;
70132;SDS011;57495;49.922;7.966;2023-07-09T10:45:07;7.18;;;4.20;;
70132;SDS011;57495;49.922;7.966;2023-07-09T10:47:14;8.95;;;4.05;;
70132;SDS011;57495;49.922;7.966;2023-07-09T10:49:30;6.65;;;3.72;;
70132;SDS011;57495;49.922;7.966;2023-07-09T10:51:37;7.35;;;3.88;;
70132;SDS011;57495;49.922;7.966;2023-07-09T10:53:40;7.35;;;4.13;;
70132;SDS011;57495;49.922;7.966;2023-07-09T10:55:47;8.38;;;3.85;;
70132;SDS011;57495;49.922;7.966;2023-07-09T10:57:56;7.03;;;3.93;;
70132;SDS011;57495;49.922;7.966;2023-07-09T11:00:00;6.80;;;3.57;;
70132;SDS011;57495;49.922;7.966;2023-07-09T11:02:08;7.38;;;3.90;;
70132;SDS011;57495;49.922;7.966;2023-07-09T11:04:21;6.53;;;3.63;;
70132;SDS011;57495;49.922;7.966;2023-07-09T11:06:32;7.57;;;4.00;;
70132;SDS011;57495;49.922;7.966;2023-07-09T11:08:38;5.82;;;3.60;;
70132;SDS011;57495;49.922;7.966;2023-07-09T11:10:44;7.65;;;3.90;;
70132;SDS011;57495;49.922;7.966;2023-07-09T11:12:53;8.77;;;3.70;;
70132;SDS011;57495;49.922;7.966;2023-07-09T11:15:00;7.43;;;3.90;;
70132;SDS011;57495;49.922;7.966;2023-07-09T11:17:05;7.70;;;4.10;;
70132;SDS011;57495;49.922;7.966;2023-07-09T11:19:13;6.47;;;3.40;;
70132;SDS011;57495;49.922;7.966;2023-07-09T11:21:18;7.63;;;3.45;;
70132;SDS011;57495;49.922;7.966;2023-07-09T11:23:22;7.57;;;3.92;;
70132;SDS011;57495;49.922;7.966;2023-07-09T11:25:29;8.15;;;3.65;;
70132;SDS011;57495;49.922;7.966;2023-07-09T11:27:31;8.80;;;4.20;;
70132;SDS011;57495;49.922;7.966;2023-07-09T11:29:33;5.90;;;3.55;;
70132;SDS011;57495;49.922;7.966;2023-07-09T11:31:46;9.10;;;4.13;;
70132;SDS011;57495;49.922;7.966;2023-07-09T11:33:56;5.70;;;4.00;;
70132;SDS011;57495;49.922;7.966;2023-07-09T11:36:08;8.90;;;3.80;;
70132;SDS011;57495;49.922;7.966;2023-07-09T11:38:14;7.45;;;4.07;;
70132;SDS011;57495;49.922;7.966;2023-07-09T11:40:20;5.85;;;3.50;;
70132;SDS011;57495;49.922;7.966;2023-07-09T11:42:25;8.23;;;3.83;;
70132;SDS011;57495;49.922;7.966;2023-07-09T11:44:29;7.53;;;3.63;;
70132;SDS011;57495;49.922;7.966;2023-07-09T11:46:32;6.93;;;3.42;;
70132;SDS011;57495;49.922;7.966;2023-07-09T11:48:35;12.20;;;3.72;;
70132;SDS011;57495;49.922;7.966;2023-07-09T11:50:38;6.68;;;3.70;;
70132;SDS011;57495;49.922;7.966;2023-07-09T11:52:48;6.67;;;3.87;;
70132;SDS011;57495;49.922;7.966;2023-07-09T11:54:53;6.93;;;3.60;;
70132;SDS011;57495;49.922;7.966;2023-07-09T11:56:58;7.25;;;3.65;;
70132;SDS011;57495;49.922;7.966;2023-07-09T11:59:00;7.97;;;3.58;;
70132;SDS011;57495;49.922;7.966;2023-07-09T12:01:02;7.18;;;3.40;;
70132;SDS011;57495;49.922;7.966;2023-07-09T12:03:14;5.15;;;3.10;;
70132;SDS011;57495;49.922;7.966;2023-07-09T12:05:19;6.75;;;3.95;;
70132;SDS011;57495;49.922;7.966;2023-07-09T12:07:25;6.30;;;3.40;;
70132;SDS011;57495;49.922;7.966;2023-07-09T12:09:29;6.38;;;3.17;;
70132;SDS011;57495;49.922;7.966;2023-07-09T12:11:35;7.45;;;3.63;;
70132;SDS011;57495;49.922;7.966;2023-07-09T12:13:38;6.43;;;3.78;;
70132;SDS011;57495;49.922;7.966;2023-07-09T12:15:40;6.90;;;3.50;;
70132;SDS011;57495;49.922;7.966;2023-07-09T12:17:41;6.47;;;2.80;;
70132;SDS011;57495;49.922;7.966;2023-07-09T12:19:43;7.43;;;3.60;;
70132;SDS011;57495;49.922;7.966;2023-07-09T12:21:51;6.43;;;3.50;;